Time;durP1;ratioP1;P1;durP2;ratioP2;P2;SDS_P1;SDS_P2;PMS_P1;PMS_P2;Temp;Humidity;BMP_temperature;BMP_pressure;BME280_temperature;BME280_humidity;BME280_pressure;Samples;Min_cycle;Max_cycle;Signal;HPM_P1;HPM_P2
2021/07/26 00:00:00;;;;;;;4.00;1.85;;;17.10;99.90;;;;;;5113353;28;20452;-76
2021/07/26 00:02:28;;;;;;;3.08;2.05;;;17.10;99.90;;;;;;5114294;28;20081;-76
2021/07/26 00:04:54;;;;;;;;;;;17.10;99.90;;;;;;5085893;28;20020;-76
2021/07/26 00:07:19;;;;;;;3.80;2.20;;;17.10;99.90;;;;;;5080825;28;19908;-76
2021/07/26 00:09:45;;;;;;;2.72;1.58;;;17.20;99.90;;;;;;5116521;22;20074;-76
2021/07/26 00:12:11;;;;;;;2.08;1.83;;;17.00;99.90;;;;;;5097977;22;20044;-75
2021/07/26 00:14:36;;;;;;;3.35;1.75;;;17.00;99.90;;;;;;5090355;23;20070;-75
2021/07/26 00:17:02;;;;;;;4.78;1.67;;;17.00;99.90;;;;;;5107584;28;20373;-75
2021/07/26 00:19:28;;;;;;;4.13;1.95;;;16.90;99.90;;;;;;5077549;28;20025;-75
2021/07/26 00:21:53;;;;;;;3.53;1.88;;;16.90;99.90;;;;;;5111214;22;20067;-76
2021/07/26 00:24:20;;;;;;;2.55;1.60;;;16.90;99.90;;;;;;5115837;28;20032;-75
2021/07/26 00:26:46;;;;;;;2.88;1.80;;;16.90;99.90;;;;;;5093614;28;20027;-76
2021/07/26 00:29:12;;;;;;;2.75;1.67;;;17.00;99.90;;;;;;5116783;28;20020;-76
2021/07/26 00:31:38;;;;;;;5.93;2.03;;;16.80;99.90;;;;;;5097904;28;20022;-76
2021/07/26 00:34:19;;;;;;;3.22;2.70;;;16.80;99.90;;;;;;5116620;28;20023;-76
2021/07/26 00:36:47;;;;;;;4.35;1.90;;;16.80;99.90;;;;;;5097165;28;20100;-76
2021/07/26 00:39:14;;;;;;;;;;;16.80;99.90;;;;;;5089890;28;20012;-75
2021/07/26 00:41:40;;;;;;;2.75;1.50;;;16.80;99.90;;;;;;5095444;28;19914;-76
2021/07/26 00:44:06;;;;;;;5.20;2.20;;;16.80;99.90;;;;;;5097601;28;20062;-76
2021/07/26 00:46:32;;;;;;;4.60;2.08;;;16.70;99.90;;;;;;5116725;28;20099;-76
2021/07/26 00:49:00;;;;;;;6.60;1.73;;;16.70;99.90;;;;;;5116212;28;20024;-77
2021/07/26 00:51:26;;;;;;;3.88;2.22;;;16.70;99.90;;;;;;5117032;28;20027;-77
2021/07/26 00:53:52;;;;;;;3.55;1.92;;;16.70;99.90;;;;;;5116472;28;20378;-76
2021/07/26 00:56:18;;;;;;;3.00;1.80;;;16.70;99.90;;;;;;5100856;28;20038;-76
2021/07/26 00:58:44;;;;;;;3.40;2.15;;;16.60;99.90;;;;;;5120224;28;20415;-76
2021/07/26 01:01:13;;;;;;;2.90;1.90;;;16.60;99.90;;;;;;5120176;28;20035;-76
2021/07/26 01:03:41;;;;;;;4.22;1.60;;;16.60;99.90;;;;;;5119868;28;20024;-76
2021/07/26 01:06:07;;;;;;;7.20;2.35;;;16.60;99.90;;;;;;5101594;28;20027;-77
2021/07/26 01:08:35;;;;;;;5.32;1.88;;;16.60;99.90;;;;;;5119760;28;20024;-77
2021/07/26 01:11:03;;;;;;;3.58;1.92;;;16.60;99.90;;;;;;5119649;28;20023;-76
2021/07/26 01:13:30;;;;;;;4.15;1.67;;;16.60;99.90;;;;;;5101565;28;20503;-76
2021/07/26 01:15:56;;;;;;;2.90;2.00;;;16.50;99.90;;;;;;5101317;28;20480;-76
2021/07/26 01:18:35;;;;;;;3.47;2.15;;;16.50;99.90;;;;;;5101680;28;20028;-76
2021/07/26 01:21:05;;;;;;;3.85;2.25;;;16.50;99.90;;;;;;5118934;28;20533;-76
2021/07/26 01:23:37;;;;;;;5.38;2.42;;;16.50;99.90;;;;;;5120013;28;20099;-77
2021/07/26 01:26:05;;;;;;;2.55;1.80;;;16.50;99.90;;;;;;5118969;28;20028;-77
2021/07/26 01:28:36;;;;;;;4.63;1.67;;;16.50;99.90;;;;;;5099293;28;20023;-76
2021/07/26 01:31:02;;;;;;;3.38;2.42;;;16.50;99.90;;;;;;5117903;28;20069;-78
2021/07/26 01:33:29;;;;;;;4.00;2.33;;;16.40;99.90;;;;;;5116825;28;20031;-77
2021/07/26 01:35:55;;;;;;;5.18;2.10;;;16.40;99.90;;;;;;5119365;28;20412;-76
2021/07/26 01:38:21;;;;;;;5.65;2.40;;;16.40;99.90;;;;;;5099232;28;20026;-76
2021/07/26 01:40:50;;;;;;;3.28;2.30;;;16.40;99.90;;;;;;5118297;28;20028;-76
2021/07/26 01:43:17;;;;;;;4.53;2.55;;;16.40;99.90;;;;;;5099533;28;20523;-76
2021/07/26 01:45:54;;;;;;;3.78;2.00;;;16.40;99.90;;;;;;5096428;28;20023;-76
2021/07/26 01:48:38;;;;;;;3.90;2.20;;;16.40;99.90;;;;;;5075591;28;20025;-77
2021/07/26 01:51:23;;;;;;;7.38;2.90;;;16.40;99.90;;;;;;5075087;28;20381;-76
2021/07/26 01:53:49;;;;;;;4.00;2.60;;;16.40;99.90;;;;;;5097127;28;20028;-76
2021/07/26 01:56:15;;;;;;;3.70;2.05;;;16.40;99.90;;;;;;5097329;28;20020;-77
2021/07/26 01:58:43;;;;;;;5.32;2.75;;;16.30;99.90;;;;;;5089712;28;20404;-77
2021/07/26 02:01:08;;;;;;;3.78;2.30;;;16.30;99.90;;;;;;5079088;28;20020;-77
2021/07/26 02:03:34;;;;;;;4.55;2.70;;;16.30;99.90;;;;;;5094900;28;20039;-77
2021/07/26 02:06:00;;;;;;;3.47;2.22;;;16.30;99.90;;;;;;5078633;28;20024;-77
2021/07/26 02:08:26;;;;;;;5.10;2.33;;;16.30;99.90;;;;;;5097153;28;20020;-77
2021/07/26 02:10:51;;;;;;;4.45;2.70;;;16.30;99.90;;;;;;5096735;28;20015;-75
2021/07/26 02:13:17;;;;;;;6.75;2.63;;;16.30;99.90;;;;;;5115771;28;20031;-79
2021/07/26 02:15:42;;;;;;;5.38;2.83;;;16.30;99.90;;;;;;5103165;22;20046;-77
2021/07/26 02:18:08;;;;;;;8.05;2.92;;;16.30;99.90;;;;;;5113097;28;20023;-77
2021/07/26 02:20:34;;;;;;;5.95;3.35;;;16.20;99.90;;;;;;5091752;28;20013;-76
2021/07/26 02:23:00;;;;;;;4.22;2.90;;;16.20;99.90;;;;;;5095655;28;20028;-75
2021/07/26 02:25:25;;;;;;;8.15;3.03;;;16.10;99.90;;;;;;5077206;28;20024;-75
2021/07/26 02:27:51;;;;;;;5.68;3.13;;;16.10;99.90;;;;;;5096994;28;20072;-76
2021/07/26 02:30:17;;;;;;;8.32;3.20;;;16.20;99.90;;;;;;5125403;22;20035;-76
2021/07/26 02:32:42;;;;;;;5.95;3.53;;;16.00;99.90;;;;;;5095765;28;20027;-76
2021/07/26 02:35:09;;;;;;;6.97;3.42;;;16.10;99.90;;;;;;5114876;28;20024;-75
2021/07/26 02:37:35;;;;;;;6.82;3.65;;;16.10;99.90;;;;;;5096623;28;20081;-76
2021/07/26 02:40:00;;;;;;;5.50;3.20;;;16.10;99.90;;;;;;5089338;28;20024;-75
2021/07/26 02:42:26;;;;;;;6.43;3.17;;;16.10;99.90;;;;;;5106981;22;20040;-75
2021/07/26 02:44:52;;;;;;;6.75;3.60;;;16.10;99.90;;;;;;5094081;28;20016;-76
2021/07/26 02:47:17;;;;;;;8.52;3.25;;;16.00;99.90;;;;;;5094454;28;20019;-76
2021/07/26 02:49:44;;;;;;;5.63;3.22;;;16.00;99.90;;;;;;5112354;28;20426;-77
2021/07/26 02:52:10;;;;;;;4.88;3.17;;;16.00;99.90;;;;;;5114801;28;20015;-76
2021/07/26 02:54:35;;;;;;;7.00;3.42;;;16.00;99.90;;;;;;5114684;28;20204;-75
2021/07/26 02:57:01;;;;;;;7.05;4.40;;;16.00;99.90;;;;;;5112900;28;20023;-76
2021/07/26 02:59:26;;;;;;;5.90;3.65;;;16.10;99.90;;;;;;5114133;28;20051;-75
2021/07/26 03:01:52;;;;;;;6.15;3.88;;;16.10;99.90;;;;;;5114610;28;20480;-76
2021/07/26 03:04:18;;;;;;;9.50;4.25;;;16.10;99.90;;;;;;5096370;28;20023;-75
2021/07/26 03:06:43;;;;;;;10.40;4.05;;;16.10;99.90;;;;;;5095872;28;20016;-75
2021/07/26 03:09:09;;;;;;;7.40;4.28;;;16.20;99.90;;;;;;5114676;28;20038;-75
2021/07/26 03:11:36;;;;;;;7.43;4.22;;;16.20;99.90;;;;;;5114401;28;20145;-75
2021/07/26 03:14:02;;;;;;;7.93;3.35;;;16.20;99.90;;;;;;5114170;28;20026;-75
2021/07/26 03:16:27;;;;;;;9.20;4.13;;;16.30;99.90;;;;;;5112716;22;20048;-77
2021/07/26 03:18:53;;;;;;;7.05;4.00;;;16.20;99.90;;;;;;5093906;28;20385;-76
2021/07/26 03:21:18;;;;;;;5.75;3.90;;;16.20;99.90;;;;;;5111057;22;20044;-77
2021/07/26 03:23:44;;;;;;;6.57;3.92;;;16.30;99.90;;;;;;5107039;22;20082;-76
2021/07/26 03:26:10;;;;;;;9.35;4.68;;;16.30;99.90;;;;;;5093906;28;20508;-75
2021/07/26 03:28:36;;;;;;;7.30;4.10;;;16.30;99.90;;;;;;5094020;28;20106;-75
2021/07/26 03:31:02;;;;;;;6.80;4.75;;;16.40;99.90;;;;;;5076937;28;20023;-77
2021/07/26 03:33:28;;;;;;;6.90;3.95;;;16.40;99.90;;;;;;5093698;28;20062;-75
2021/07/26 03:35:54;;;;;;;9.18;4.05;;;16.30;99.90;;;;;;5090903;28;20038;-76
2021/07/26 03:38:23;;;;;;;7.18;4.22;;;16.40;99.90;;;;;;5117075;22;20493;-77
2021/07/26 03:40:50;;;;;;;8.55;4.28;;;16.40;99.90;;;;;;5093532;28;20389;-75
2021/07/26 03:43:16;;;;;;;5.90;3.88;;;16.40;99.90;;;;;;5093365;28;20078;-75
2021/07/26 03:45:42;;;;;;;6.70;4.25;;;16.30;99.90;;;;;;5093939;28;20500;-75
2021/07/26 03:50:40;;;;;;;8.53;3.40;;;16.30;99.90;;;;;;5087661;28;20497;-75
2021/07/26 03:53:05;;;;;;;9.75;3.63;;;16.40;99.90;;;;;;5093637;28;20276;-76
2021/07/26 03:55:34;;;;;;;6.95;3.72;;;16.40;99.90;;;;;;5098189;28;20461;-76
2021/07/26 03:57:59;;;;;;;7.22;3.83;;;16.40;99.90;;;;;;5097505;28;20477;-76
2021/07/26 04:00:29;;;;;;;9.23;3.80;;;16.30;99.90;;;;;;5079117;28;20020;-75
2021/07/26 04:08:18;;;;;;;6.70;3.97;;;16.30;99.90;;;;;;5117516;28;20260;-76
2021/07/26 04:10:52;;;;;;;9.48;3.67;;;16.30;99.90;;;;;;5117808;28;20018;-75
2021/07/26 04:13:18;;;;;;;7.05;3.97;;;16.30;99.90;;;;;;5117586;28;20019;-76
2021/07/26 04:15:45;;;;;;;7.40;3.90;;;16.40;99.90;;;;;;5117855;28;20468;-76
2021/07/26 04:18:11;;;;;;;12.25;4.80;;;16.40;99.90;;;;;;5117870;28;20038;-76
2021/07/26 04:20:37;;;;;;;6.95;3.90;;;16.40;99.90;;;;;;5118903;22;20097;-76
2021/07/26 04:23:03;;;;;;;8.70;3.80;;;16.40;99.90;;;;;;5106936;28;20481;-77
2021/07/26 04:25:28;;;;;;;6.30;3.92;;;16.40;99.90;;;;;;5117466;28;20031;-75
2021/07/26 04:27:54;;;;;;;6.88;3.35;;;16.40;99.90;;;;;;5114466;22;20054;-75
2021/07/26 04:30:20;;;;;;;6.85;3.42;;;16.40;99.90;;;;;;5097579;28;20028;-76
2021/07/26 04:32:47;;;;;;;10.57;3.70;;;16.40;99.90;;;;;;5098901;28;20027;-77
2021/07/26 04:35:15;;;;;;;10.52;3.92;;;16.50;99.90;;;;;;5143988;22;20046;-76
2021/07/26 04:37:41;;;;;;;6.85;3.63;;;16.50;99.90;;;;;;5096885;28;20032;-78
2021/07/26 04:40:08;;;;;;;7.20;4.25;;;16.60;99.90;;;;;;5096913;28;20545;-76
2021/07/26 04:42:38;;;;;;;8.07;4.47;;;16.60;99.90;;;;;;5096669;28;20435;-77
2021/07/26 04:45:05;;;;;;;7.55;3.42;;;16.70;99.90;;;;;;5123133;22;20093;-75
2021/07/26 04:47:30;;;;;;;8.38;3.92;;;16.80;99.90;;;;;;5096528;28;20028;-75
2021/07/26 04:49:56;;;;;;;7.78;3.80;;;16.90;99.90;;;;;;5096843;28;20477;-77
2021/07/26 04:52:22;;;;;;;9.10;3.65;;;17.00;99.90;;;;;;5132063;22;20055;-76
2021/07/26 04:54:47;;;;;;;8.50;3.20;;;17.10;99.90;;;;;;5097808;28;20026;-75
2021/07/26 04:57:13;;;;;;;6.40;3.00;;;17.20;99.90;;;;;;5096415;28;20498;-75
2021/07/26 04:59:38;;;;;;;9.65;3.88;;;17.30;99.90;;;;;;5096888;28;20102;-76
2021/07/26 05:02:04;;;;;;;8.38;3.70;;;17.40;99.90;;;;;;5096087;28;20024;-76
2021/07/26 05:04:30;;;;;;;7.97;3.72;;;17.40;99.90;;;;;;5077199;28;20020;-75
2021/07/26 05:07:02;;;;;;;5.20;3.85;;;17.50;99.90;;;;;;5095272;28;20024;-76
2021/07/26 05:09:28;;;;;;;9.35;3.92;;;17.60;99.90;;;;;;5109125;22;20048;-75
2021/07/26 05:12:00;;;;;;;7.18;3.53;;;17.70;99.90;;;;;;5096195;28;20033;-75
2021/07/26 05:14:25;;;;;;;6.93;3.75;;;17.70;99.90;;;;;;5132747;22;20123;-75
2021/07/26 05:16:51;;;;;;;5.25;3.58;;;17.80;99.90;;;;;;5077697;28;20043;-77
2021/07/26 05:19:16;;;;;;;6.13;4.00;;;17.70;99.90;;;;;;5084383;28;20031;-77
2021/07/26 05:21:42;;;;;;;7.68;3.63;;;17.70;99.90;;;;;;5101928;23;20082;-77
2021/07/26 05:24:08;;;;;;;6.20;3.60;;;17.70;99.90;;;;;;5108236;22;20047;-74
2021/07/26 05:26:33;;;;;;;8.73;4.15;;;17.70;99.90;;;;;;5094637;28;20028;-75
2021/07/26 05:28:59;;;;;;;6.95;3.70;;;17.80;99.90;;;;;;5076359;28;20538;-74
2021/07/26 05:31:24;;;;;;;8.30;4.18;;;17.80;99.90;;;;;;5094439;28;20142;-74
2021/07/26 05:33:50;;;;;;;8.02;3.30;;;17.90;99.90;;;;;;5076328;28;20081;-76
2021/07/26 05:36:15;;;;;;;4.97;3.13;;;18.10;99.90;;;;;;5088705;28;20500;-74
2021/07/26 05:38:41;;;;;;;7.25;3.35;;;18.20;99.90;;;;;;5070319;22;1100698;-77
2021/07/26 05:41:10;;;;;;;6.05;3.53;;;18.30;99.90;;;;;;5119766;22;20080;-77
2021/07/26 05:43:35;;;;;;;9.45;3.50;;;18.50;99.90;;;;;;5095138;28;20031;-76
2021/07/26 05:46:01;;;;;;;14.25;3.63;;;18.60;99.90;;;;;;5095664;28;20346;-74
2021/07/26 05:48:26;;;;;;;9.88;4.15;;;18.70;99.90;;;;;;5090486;23;20055;-74
2021/07/26 05:50:52;;;;;;;7.68;3.67;;;18.80;99.90;;;;;;5076964;28;20016;-74
2021/07/26 05:53:18;;;;;;;7.22;4.05;;;18.90;99.90;;;;;;5114514;28;20028;-76
2021/07/26 05:55:43;;;;;;;5.07;2.85;;;19.10;99.90;;;;;;5115470;28;20034;-74
2021/07/26 05:58:09;;;;;;;6.97;3.63;;;19.20;99.90;;;;;;5097193;28;20020;-76
2021/07/26 06:00:56;;;;;;;11.60;3.30;;;19.30;99.90;;;;;;5115501;28;20093;-75
2021/07/26 06:03:22;;;;;;;5.57;3.45;;;19.30;99.90;;;;;;5083883;28;20032;-75
2021/07/26 06:05:48;;;;;;;8.98;3.53;;;19.30;99.90;;;;;;5112348;22;20105;-75
2021/07/26 06:08:13;;;;;;;6.90;2.95;;;19.30;99.90;;;;;;5120552;22;20451;-73
2021/07/26 06:10:39;;;;;;;6.53;3.47;;;19.30;99.90;;;;;;5095048;28;20024;-76
2021/07/26 06:13:05;;;;;;;7.68;3.78;;;19.30;99.90;;;;;;5076786;28;20028;-73
2021/07/26 06:15:31;;;;;;;7.55;3.75;;;19.40;99.90;;;;;;5107912;22;20078;-76
2021/07/26 06:17:56;;;;;;;7.78;3.65;;;19.50;99.90;;;;;;5131263;22;20446;-74
2021/07/26 06:20:22;;;;;;;6.05;3.20;;;19.60;99.90;;;;;;5094455;28;20054;-75
2021/07/26 06:22:48;;;;;;;7.90;3.38;;;19.70;99.90;;;;;;5122991;22;20501;-73
2021/07/26 06:25:13;;;;;;;6.68;3.63;;;19.80;99.90;;;;;;5125932;27;20023;-73
2021/07/26 06:27:41;;;;;;;10.52;3.65;;;19.70;99.90;;;;;;5105214;27;20076;-77
2021/07/26 06:30:07;;;;;;;7.22;3.00;;;19.80;99.90;;;;;;5117611;27;20027;-74
2021/07/26 06:32:35;;;;;;;5.18;3.15;;;19.80;99.90;;;;;;5115911;28;20544;-76
2021/07/26 06:35:01;;;;;;;8.05;3.13;;;19.90;99.90;;;;;;5115067;28;20027;-75
2021/07/26 06:37:26;;;;;;;5.47;3.70;;;19.90;99.90;;;;;;5122017;22;20051;-74
2021/07/26 06:39:52;;;;;;;6.75;3.65;;;19.90;99.90;;;;;;5076995;28;20020;-75
2021/07/26 06:42:20;;;;;;;5.90;3.42;;;20.00;99.90;;;;;;5111677;28;20063;-75
2021/07/26 06:44:48;;;;;;;9.60;4.07;;;20.00;99.90;;;;;;5049560;22;20525;-74
2021/07/26 06:47:16;;;;;;;10.15;3.95;;;20.00;99.90;;;;;;5094988;28;20028;-74
2021/07/26 06:49:41;;;;;;;9.55;4.07;;;20.10;99.90;;;;;;5094172;28;20023;-74
2021/07/26 06:52:07;;;;;;;8.75;4.15;;;19.90;99.90;;;;;;5094165;28;20024;-76
2021/07/26 06:54:32;;;;;;;7.15;4.85;;;19.80;99.90;;;;;;5094359;28;20031;-76
2021/07/26 06:56:58;;;;;;;9.40;3.80;;;19.80;99.90;;;;;;5075886;28;20047;-76
2021/07/26 06:59:24;;;;;;;7.35;3.92;;;19.70;99.90;;;;;;5094061;28;20021;-76
2021/07/26 07:01:49;;;;;;;11.73;5.13;;;19.60;99.90;;;;;;5075802;28;20024;-76
2021/07/26 07:04:15;;;;;;;10.35;4.68;;;19.60;99.90;;;;;;5107186;22;20422;-74
2021/07/26 07:06:44;;;;;;;9.80;4.75;;;19.50;99.90;;;;;;5104020;28;20016;-75
2021/07/26 07:09:10;;;;;;;9.43;5.95;;;19.50;99.90;;;;;;5095761;28;20400;-74
2021/07/26 07:11:36;;;;;;;12.38;5.88;;;19.50;99.90;;;;;;5095711;28;20115;-76
2021/07/26 07:14:02;;;;;;;9.43;5.07;;;19.50;99.90;;;;;;5114465;28;20045;-75
2021/07/26 07:16:28;;;;;;;11.18;5.57;;;19.60;99.90;;;;;;5095912;28;20027;-77
2021/07/26 07:18:55;;;;;;;8.15;5.82;;;19.80;99.90;;;;;;5114466;28;20026;-74
2021/07/26 07:21:24;;;;;;;9.13;6.15;;;19.90;99.90;;;;;;5104024;23;20102;-75
2021/07/26 07:23:50;;;;;;;;;;;20.00;99.90;;;;;;5094462;28;20021;-76
2021/07/26 07:26:17;;;;;;;10.55;6.00;;;20.20;99.90;;;;;;5093720;28;20346;-76
2021/07/26 07:28:44;;;;;;;11.05;6.00;;;20.30;99.90;;;;;;5074515;28;20020;-76
2021/07/26 07:31:10;;;;;;;11.30;5.90;;;20.40;99.90;;;;;;5073055;28;20032;-76
2021/07/26 07:33:38;;;;;;;11.70;6.30;;;20.50;99.90;;;;;;5073063;28;20033;-76
2021/07/26 07:36:04;;;;;;;13.40;7.00;;;20.60;99.90;;;;;;5076760;28;20012;-76
2021/07/26 07:38:30;;;;;;;12.55;5.90;;;20.70;99.90;;;;;;5093148;28;20385;-76
2021/07/26 07:40:58;;;;;;;12.68;5.55;;;20.70;99.90;;;;;;5093037;28;20024;-76
2021/07/26 07:43:27;;;;;;;10.38;5.43;;;20.80;99.90;;;;;;5093086;28;20025;-76
2021/07/26 07:45:56;;;;;;;11.05;6.13;;;20.80;99.90;;;;;;5093163;28;20473;-76
2021/07/26 07:48:25;;;;;;;9.98;5.85;;;20.90;99.90;;;;;;5093125;28;20052;-76
2021/07/26 07:50:55;;;;;;;12.60;6.25;;;21.00;99.90;;;;;;5092986;28;20027;-75
2021/07/26 07:53:21;;;;;;;11.38;6.10;;;21.00;99.90;;;;;;5091369;28;20473;-74
2021/07/26 07:55:48;;;;;;;10.02;6.65;;;21.10;99.90;;;;;;5093672;28;20017;-74
2021/07/26 07:58:13;;;;;;;11.45;6.63;;;21.10;99.90;;;;;;5093428;28;20024;-74
2021/07/26 08:00:39;;;;;;;13.00;7.70;;;21.20;99.90;;;;;;5093335;28;20036;-74
2021/07/26 08:03:05;;;;;;;10.93;7.40;;;21.30;99.90;;;;;;5093567;28;20028;-74
2021/07/26 08:05:31;;;;;;;10.75;6.65;;;21.30;99.90;;;;;;5094460;28;20024;-75
2021/07/26 08:07:57;;;;;;;11.60;7.28;;;21.30;99.90;;;;;;5093451;28;20503;-73
2021/07/26 08:10:23;;;;;;;12.38;7.93;;;21.20;99.90;;;;;;5091854;28;20063;-76
2021/07/26 08:12:49;;;;;;;11.70;7.25;;;21.20;99.90;;;;;;5093610;28;20028;-74
2021/07/26 08:15:15;;;;;;;12.20;7.45;;;21.20;99.90;;;;;;5093938;28;20030;-76
2021/07/26 08:17:42;;;;;;;11.35;7.78;;;21.20;99.90;;;;;;5093151;28;20111;-75
2021/07/26 08:20:16;;;;;;;10.65;6.57;;;21.20;99.90;;;;;;5084204;28;20107;-74
2021/07/26 08:22:42;;;;;;;11.63;6.18;;;21.30;99.90;;;;;;5071197;28;20032;-74
2021/07/26 08:25:08;;;;;;;10.80;5.85;;;21.20;99.90;;;;;;5054550;28;20436;-74
2021/07/26 08:27:54;;;;;;;8.43;5.57;;;21.30;99.90;;;;;;5072510;28;20366;-74
2021/07/26 08:30:31;;;;;;;11.75;4.97;;;21.20;99.90;;;;;;5072929;28;20412;-74
2021/07/26 08:32:57;;;;;;;9.63;5.90;;;21.20;99.90;;;;;;5072548;28;20035;-74
2021/07/26 08:35:24;;;;;;;9.85;5.60;;;21.40;99.90;;;;;;5071569;28;20028;-74
2021/07/26 08:37:51;;;;;;;10.05;5.70;;;21.50;99.90;;;;;;5091296;28;20020;-74
2021/07/26 08:40:19;;;;;;;8.38;4.88;;;21.60;99.90;;;;;;5093297;28;20028;-73
2021/07/26 08:42:45;;;;;;;6.88;4.40;;;21.80;99.90;;;;;;5096537;28;20020;-74
2021/07/26 08:45:10;;;;;;;10.98;5.43;;;21.90;99.90;;;;;;5094815;28;20023;-74
2021/07/26 08:47:44;;;;;;;8.35;5.28;;;22.00;99.90;;;;;;5096194;28;20027;-74
2021/07/26 08:50:12;;;;;;;12.30;5.43;;;22.00;99.90;;;;;;5094468;28;20099;-74
2021/07/26 08:52:52;;;;;;;8.82;5.55;;;22.00;99.90;;;;;;5096744;28;20020;-76
2021/07/26 08:55:21;;;;;;;7.15;5.13;;;22.10;99.90;;;;;;5095289;28;20066;-73
2021/07/26 08:57:48;;;;;;;8.77;5.00;;;21.90;99.90;;;;;;5095235;28;20047;-75
2021/07/26 09:00:18;;;;;;;10.45;5.55;;;22.10;99.90;;;;;;5095170;28;20020;-75
2021/07/26 09:02:44;;;;;;;7.07;5.05;;;22.10;99.90;;;;;;5113878;22;20401;-76
2021/07/26 09:05:12;;;;;;;7.43;4.75;;;22.10;99.90;;;;;;5095859;28;20013;-76
2021/07/26 09:07:43;;;;;;;8.80;5.00;;;22.10;99.90;;;;;;5096025;28;20022;-76
2021/07/26 09:10:20;;;;;;;5.80;3.42;;;22.20;99.90;;;;;;5095923;28;20457;-76
2021/07/26 09:12:49;;;;;;;5.28;2.78;;;22.00;99.90;;;;;;5095652;28;20416;-76
2021/07/26 09:15:17;;;;;;;3.65;2.75;;;21.90;99.90;;;;;;5077243;28;20371;-75
2021/07/26 09:17:44;;;;;;;6.18;3.08;;;22.00;99.90;;;;;;5089851;28;20028;-76
2021/07/26 09:20:12;;;;;;;3.22;2.80;;;22.20;99.90;;;;;;5116245;28;20022;-75
2021/07/26 09:22:39;;;;;;;4.10;2.72;;;22.30;99.90;;;;;;5121015;28;20034;-76
2021/07/26 09:25:30;;;;;;;4.05;2.63;;;22.40;99.90;;;;;;5119967;28;20040;-76
2021/07/26 09:27:58;;;;;;;5.72;1.80;;;22.30;99.90;;;;;;5099713;28;20038;-75
2021/07/26 09:30:26;;;;;;;2.72;1.90;;;22.40;99.90;;;;;;5101102;28;20024;-75
2021/07/26 09:32:52;;;;;;;4.05;1.67;;;22.60;99.90;;;;;;5105127;28;20028;-75
2021/07/26 09:35:22;;;;;;;5.43;2.80;;;22.80;99.90;;;;;;5077978;28;20016;-75
2021/07/26 09:37:57;;;;;;;3.33;2.00;;;23.00;99.90;;;;;;5079260;28;20035;-76
2021/07/26 09:40:27;;;;;;;4.85;1.92;;;23.20;99.90;;;;;;5078646;28;20032;-74
2021/07/26 09:42:52;;;;;;;2.58;1.35;;;23.20;99.90;;;;;;5081654;28;20024;-73
2021/07/26 09:45:24;;;;;;;2.75;1.70;;;23.40;99.90;;;;;;5081104;28;20026;-73
2021/07/26 09:48:13;;;;;;;2.13;1.75;;;23.60;99.90;;;;;;5062282;28;20048;-74
2021/07/26 09:50:40;;;;;;;3.80;2.10;;;23.80;99.90;;;;;;5061055;28;20082;-75
2021/07/26 09:53:21;;;;;;;4.30;1.42;;;23.80;99.90;;;;;;5080122;28;20032;-73
2021/07/26 09:55:58;;;;;;;4.10;2.45;;;23.80;99.90;;;;;;5094279;28;20396;-75
2021/07/26 09:58:38;;;;;;;5.45;1.80;;;23.60;99.90;;;;;;5135055;22;20052;-72
2021/07/26 10:01:05;;;;;;;1.90;1.58;;;24.60;99.90;;;;;;5074781;28;20036;-73
2021/07/26 10:03:38;;;;;;;2.13;1.48;;;23.30;99.90;;;;;;5052654;28;20060;-75
2021/07/26 10:06:10;;;;;;;2.33;1.33;;;23.30;99.90;;;;;;5069513;28;20564;-76
2021/07/26 10:08:37;;;;;;;3.15;1.20;;;23.40;99.90;;;;;;5037449;28;20021;-76
2021/07/26 10:11:03;;;;;;;2.55;1.27;;;23.70;99.90;;;;;;5055086;28;20450;-77
2021/07/26 10:13:30;;;;;;;2.75;1.23;;;24.10;99.90;;;;;;5054982;28;20517;-73
2021/07/26 10:15:59;;;;;;;1.48;0.50;;;24.30;99.90;;;;;;5054639;28;20110;-77
2021/07/26 10:18:26;;;;;;;2.00;0.77;;;24.60;99.90;;;;;;5096870;22;20497;-74
2021/07/26 10:21:01;;;;;;;1.98;1.23;;;24.90;99.90;;;;;;5094688;28;20024;-75
2021/07/26 10:23:43;;;;;;;3.55;1.17;;;25.10;99.90;;;;;;5095317;28;20035;-76
2021/07/26 10:26:12;;;;;;;1.83;1.00;;;25.30;99.90;;;;;;5101624;28;20024;-77
2021/07/26 10:28:39;;;;;;;1.85;0.80;;;25.30;99.90;;;;;;5101321;28;20389;-76
2021/07/26 10:31:38;;;;;;;1.52;0.95;;;25.20;99.90;;;;;;5078184;28;20017;-73
2021/07/26 10:34:15;;;;;;;1.42;0.80;;;24.90;99.90;;;;;;5050381;28;20406;-75
2021/07/26 10:36:41;;;;;;;2.30;0.80;;;24.80;99.90;;;;;;5095058;28;20024;-73
2021/07/26 10:39:07;;;;;;;0.80;0.50;;;24.80;99.90;;;;;;5098662;28;20031;-74
2021/07/26 10:41:45;;;;;;;1.35;0.93;;;24.70;99.90;;;;;;5077700;28;20024;-76
2021/07/26 10:49:15;;;;;;;4.60;1.27;;;24.30;99.90;;;;;;5095872;22;20043;-74
2021/07/26 10:51:45;;;;;;;4.85;0.93;;;24.50;99.90;;;;;;5115415;22;20055;-75
2021/07/26 10:54:31;;;;;;;4.05;1.08;;;24.70;99.90;;;;;;5075922;28;20024;-73
2021/07/26 10:57:03;;;;;;;2.30;1.17;;;25.10;99.90;;;;;;5094200;28;20057;-74
2021/07/26 10:59:51;;;;;;;4.15;1.95;;;25.40;99.90;;;;;;5076191;28;20035;-75
2021/07/26 11:02:35;;;;;;;1.85;1.13;;;25.70;99.90;;;;;;5110676;28;20496;-75
2021/07/26 11:05:25;;;;;;;2.45;1.27;;;25.80;99.60;;;;;;5106177;28;20384;-75
2021/07/26 11:08:18;;;;;;;0.47;0.40;;;25.90;99.90;;;;;;5100698;28;20056;-74
2021/07/26 11:10:45;;;;;;;1.60;0.60;;;26.20;99.90;;;;;;5079806;28;20070;-75
2021/07/26 11:13:11;;;;;;;1.55;0.60;;;26.20;98.00;;;;;;5082027;28;20035;-76
2021/07/26 11:15:57;;;;;;;1.63;1.17;;;26.30;98.10;;;;;;5099451;28;20488;-75
2021/07/26 11:18:41;;;;;;;0.95;0.82;;;26.10;97.20;;;;;;5107978;22;20090;-74
2021/07/26 11:21:08;;;;;;;0.82;0.30;;;26.00;98.00;;;;;;5096832;28;20457;-74
2021/07/26 11:23:53;;;;;;;4.15;0.43;;;26.10;98.00;;;;;;5096744;28;20023;-74
2021/07/26 11:26:27;;;;;;;1.98;0.47;;;26.30;98.30;;;;;;5077870;28;20020;-76
2021/07/26 11:28:55;;;;;;;1.45;0.57;;;26.80;98.40;;;;;;5097940;28;20023;-74
2021/07/26 11:31:26;;;;;;;0.88;0.73;;;26.70;97.00;;;;;;5075678;28;20061;-75
2021/07/26 11:33:52;;;;;;;1.50;0.82;;;27.00;95.60;;;;;;5096783;28;20028;-74
2021/07/26 11:36:19;;;;;;;3.80;0.82;;;26.70;94.60;;;;;;5093787;28;20028;-76
2021/07/26 11:39:00;;;;;;;2.13;0.82;;;26.30;94.90;;;;;;5093059;28;20020;-73
2021/07/26 11:41:26;;;;;;;2.55;0.45;;;25.80;96.50;;;;;;5075108;28;20035;-74
2021/07/26 11:43:53;;;;;;;0.85;0.20;;;25.30;97.20;;;;;;5079794;28;20093;-74
2021/07/26 11:46:20;;;;;;;0.70;0.40;;;25.00;99.70;;;;;;5095958;28;20039;-77
2021/07/26 11:48:45;;;;;;;1.30;0.55;;;25.00;99.90;;;;;;5093598;28;20016;-75
2021/07/26 11:51:44;;;;;;;0.17;0.10;;;25.20;99.90;;;;;;5106794;22;20385;-74
2021/07/26 11:54:09;;;;;;;0.10;0.00;;;25.00;99.90;;;;;;5039616;28;20063;-75
2021/07/26 11:56:36;;;;;;;0.73;0.13;;;25.00;99.90;;;;;;5073906;28;20017;-75
2021/07/26 11:59:23;;;;;;;0.63;0.10;;;25.10;99.20;;;;;;5141992;22;20067;-72
2021/07/26 12:02:29;;;;;;;0.10;0.00;;;25.30;99.80;;;;;;5075440;28;20016;-73
2021/07/26 12:04:56;;;;;;;0.32;0.00;;;25.80;98.50;;;;;;5075061;28;20032;-75
2021/07/26 12:07:41;;;;;;;0.65;0.00;;;26.10;96.60;;;;;;5075472;28;20026;-76
2021/07/26 12:10:08;;;;;;;2.85;0.10;;;26.00;96.20;;;;;;5110788;22;20050;-72
2021/07/26 12:15:27;;;;;;;1.15;0.10;;;25.10;97.60;;;;;;5073698;28;20422;-74
2021/07/26 12:18:05;;;;;;;0.80;0.10;;;24.90;99.40;;;;;;5075839;28;20029;-73
2021/07/26 12:20:38;;;;;;;1.30;0.00;;;24.80;99.70;;;;;;5092835;22;20039;-74
2021/07/26 12:23:21;;;;;;;0.10;0.00;;;24.80;99.90;;;;;;5105997;22;20046;-73
2021/07/26 12:25:49;;;;;;;1.77;0.00;;;24.90;99.90;;;;;;5097388;28;20111;-74
2021/07/26 12:28:21;;;;;;;0.63;0.20;;;25.00;99.90;;;;;;5110701;22;20052;-73
2021/07/26 12:30:53;;;;;;;1.23;0.00;;;24.90;99.70;;;;;;5110913;22;20059;-74
2021/07/26 12:33:32;;;;;;;0.52;0.10;;;24.90;99.90;;;;;;5116989;28;20054;-74
2021/07/26 12:36:33;;;;;;;1.35;0.63;;;24.90;99.90;;;;;;5117146;28;20032;-74
2021/07/26 12:39:04;;;;;;;2.25;0.30;;;25.10;99.90;;;;;;5099393;28;20024;-74
2021/07/26 12:41:31;;;;;;;1.10;0.20;;;25.30;99.90;;;;;;5098478;28;20076;-74
2021/07/26 12:44:10;;;;;;;0.40;0.30;;;25.80;99.90;;;;;;5116778;28;20031;-74
2021/07/26 12:46:37;;;;;;;0.50;0.50;;;26.30;99.30;;;;;;5117470;28;20035;-74
2021/07/26 12:49:03;;;;;;;2.08;0.93;;;26.90;98.80;;;;;;5098135;28;20488;-76
2021/07/26 12:51:29;;;;;;;3.03;0.38;;;27.40;97.80;;;;;;5117132;28;20100;-76
2021/07/26 12:53:54;;;;;;;0.90;0.65;;;27.90;96.70;;;;;;5116546;28;20023;-73
2021/07/26 12:56:20;;;;;;;1.95;0.93;;;27.90;94.10;;;;;;5116173;28;20031;-73
2021/07/26 12:58:45;;;;;;;3.20;0.70;;;27.50;95.10;;;;;;5116558;28;20027;-74
2021/07/26 13:01:11;;;;;;;0.25;0.10;;;27.30;95.60;;;;;;5116143;28;20019;-73
2021/07/26 13:03:37;;;;;;;0.10;0.00;;;27.20;93.90;;;;;;5097984;28;20016;-73
2021/07/26 13:06:05;;;;;;;0.75;0.10;;;27.10;93.60;;;;;;5116782;28;20031;-73
2021/07/26 13:08:30;;;;;;;0.40;0.10;;;26.90;92.80;;;;;;5120599;28;20042;-73